createdAt,value
2019-05-30T17:37:45.731Z,63.0
2019-05-30T17:38:47.112Z,63.2
2019-05-30T17:40:08.599Z,62.5
2019-05-30T17:41:09.928Z,62.8
2019-05-30T17:42:31.400Z,62.7
2019-05-30T17:43:32.792Z,62.8
2019-05-30T17:44:54.280Z,62.9
2019-05-30T17:45:55.674Z,62.8
2019-05-30T17:47:17.153Z,62.8
2019-05-30T17:48:19.233Z,62.8
2019-05-30T17:49:39.977Z,62.8
2019-05-30T17:50:41.370Z,62.9
2019-05-30T17:52:02.865Z,62.9
2019-05-30T17:53:04.248Z,62.9
2019-05-30T17:54:26.012Z,63.1
2019-05-30T17:55:28.030Z,63.6
2019-05-30T17:56:48.528Z,63.1
2019-05-30T17:57:49.905Z,63.4
2019-05-30T17:59:11.409Z,63.0
2019-05-30T18:00:12.793Z,62.9
2019-05-30T18:01:34.273Z,63.3
2019-05-30T18:02:35.657Z,62.9
2019-05-30T18:03:57.138Z,63.3
2019-05-30T18:04:58.521Z,63.2
2019-05-30T18:06:20.404Z,63.1
2019-05-30T18:07:22.700Z,63.1
2019-05-30T18:08:42.801Z,63.1
2019-05-30T18:09:44.185Z,62.6
2019-05-30T18:11:05.665Z,63.1
2019-05-30T18:12:07.075Z,62.9
2019-05-30T18:13:29.147Z,62.7
2019-05-30T18:14:31.303Z,62.6
2019-05-30T18:15:51.337Z,62.8
2019-05-30T18:16:52.721Z,62.6
2019-05-30T18:18:14.193Z,62.8
2019-05-30T18:19:15.577Z,62.7
2019-05-30T18:20:47.784Z,63.0
2019-05-30T18:21:38.417Z,63.0
2019-05-30T18:22:59.897Z,63.0
2019-05-30T18:24:01.300Z,62.9
2019-05-30T18:25:23.504Z,63.1
2019-05-30T18:26:24.105Z,63.0
2019-05-30T18:27:45.606Z,62.9
2019-05-30T18:28:46.977Z,62.7
2019-05-30T18:30:08.464Z,62.9
2019-05-30T18:31:09.842Z,62.8
2019-05-30T18:32:32.553Z,62.9
2019-05-30T18:33:32.701Z,63.1
2019-05-30T18:34:57.222Z,62.9
2019-05-30T18:35:55.506Z,63.0
2019-05-30T18:37:16.978Z,63.0
2019-05-30T18:38:18.371Z,63.1
2019-05-30T18:39:39.842Z,62.9
2019-05-30T18:40:41.228Z,62.9
2019-05-30T18:42:07.413Z,62.8
2019-05-30T18:43:13.218Z,63.0
2019-05-30T18:44:34.515Z,62.9
2019-05-30T18:45:35.762Z,62.9
2019-05-30T18:46:57.234Z,63.0
2019-05-30T18:47:58.618Z,63.3
2019-05-30T18:49:20.114Z,62.9
2019-05-30T18:50:21.499Z,62.9
2019-05-30T18:51:42.978Z,62.9
2019-05-30T18:52:44.363Z,62.9
2019-05-30T18:54:05.834Z,62.9
2019-05-30T18:55:07.218Z,63.0
2019-05-30T18:56:28.797Z,62.7
2019-05-30T18:57:30.728Z,62.9
2019-05-30T18:58:51.506Z,63.0
2019-05-30T18:59:52.892Z,63.0
2019-05-30T19:01:14.362Z,62.9
2019-05-30T19:02:18.449Z,62.9
2019-05-30T19:03:37.355Z,62.9
2019-05-30T19:04:38.557Z,62.8
2019-05-30T19:06:00.035Z,62.9
2019-05-30T19:07:01.413Z,63.0
2019-05-30T19:08:22.892Z,62.8
2019-05-30T19:09:24.842Z,62.8
2019-05-30T19:10:45.730Z,62.7
2019-05-30T19:11:47.115Z,62.9
2019-05-30T19:13:08.588Z,62.9
2019-05-30T19:14:09.973Z,63.0
2019-05-30T19:15:32.712Z,62.7
2019-05-30T19:16:32.820Z,62.8
2019-05-30T19:17:54.315Z,63.0
2019-05-30T19:18:55.691Z,63.1
2019-05-30T19:20:17.172Z,63.1
2019-05-30T19:21:18.556Z,62.9
2019-05-30T19:22:41.546Z,62.8
2019-05-30T19:23:41.387Z,63.1
2019-05-30T19:25:02.876Z,62.8
2019-05-30T19:26:04.268Z,62.9
2019-05-30T19:27:26.286Z,62.8
2019-05-30T19:28:28.196Z,62.9
2019-05-30T19:29:48.532Z,62.6
2019-05-30T19:30:49.920Z,62.6
2019-05-30T19:32:11.404Z,62.7
2019-05-30T19:33:12.794Z,62.8
2019-05-30T19:34:34.859Z,63.0
2019-05-30T19:35:35.612Z,62.8
2019-05-30T19:36:57.091Z,62.8
2019-05-30T19:37:58.476Z,62.8
2019-05-30T19:39:19.956Z,62.8
2019-05-30T19:40:24.637Z,63.0
2019-05-30T19:41:56.344Z,62.9
2019-05-30T19:42:44.140Z,62.7
2019-05-30T19:44:05.620Z,62.9
2019-05-30T19:45:07.004Z,63.0
2019-05-30T19:46:28.492Z,63.0
2019-05-30T19:47:30.326Z,63.1
2019-05-30T19:48:51.308Z,62.8
2019-05-30T19:49:52.700Z,62.8
2019-05-30T19:51:14.164Z,62.9
2019-05-30T19:52:15.548Z,62.9
2019-05-30T19:53:37.082Z,63.0
2019-05-30T19:54:39.142Z,63.0
2019-05-30T19:55:59.868Z,63.3
2019-05-30T19:57:01.244Z,63.2
2019-05-30T19:58:22.724Z,62.9
2019-05-30T19:59:24.108Z,63.1
2019-05-30T20:00:58.070Z,62.9
2019-05-30T20:01:46.957Z,63.2
2019-05-30T20:03:08.429Z,63.3
2019-05-30T20:04:09.813Z,63.3
2019-05-30T20:05:32.575Z,63.3
2019-05-30T20:06:32.637Z,63.2
2019-05-30T20:07:54.133Z,63.3
2019-05-30T20:08:56.041Z,63.2
2019-05-30T20:10:16.950Z,63.3
2019-05-30T20:11:18.332Z,62.9
2019-05-30T20:12:40.992Z,63.5
2019-05-30T20:13:41.274Z,63.1
2019-05-30T20:15:02.597Z,63.1
2019-05-30T20:16:03.988Z,63.4
2019-05-30T20:17:25.461Z,63.4
2019-05-30T20:18:26.865Z,63.3
2019-05-30T20:19:48.326Z,63.4
2019-05-30T20:20:57.273Z,63.3
2019-05-30T20:22:11.165Z,63.3
2019-05-30T20:23:12.549Z,63.5
2019-05-30T20:24:34.069Z,63.5
2019-05-30T20:25:38.404Z,63.5
2019-05-30T20:26:56.845Z,63.4
2019-05-30T20:27:58.230Z,63.5
2019-05-30T20:29:19.725Z,63.4
2019-05-30T20:30:21.109Z,63.5
2019-05-30T20:31:43.493Z,63.5
2019-05-30T20:32:43.933Z,63.4
2019-05-30T20:34:05.406Z,63.5
2019-05-30T20:35:06.789Z,63.5
2019-05-30T20:36:28.277Z,64.0
2019-05-30T20:37:29.662Z,63.6
2019-05-30T20:38:51.133Z,64.0
2019-05-30T20:39:52.518Z,63.8
2019-05-30T20:41:13.989Z,63.7
2019-05-30T20:42:19.176Z,64.0
2019-05-30T20:43:36.952Z,63.9
2019-05-30T20:44:38.862Z,64.1
2019-05-30T20:45:59.640Z,63.9
2019-05-30T20:47:01.014Z,64.2
2019-05-30T20:48:22.497Z,64.7
2019-05-30T20:49:23.878Z,64.1
2019-05-30T20:50:45.373Z,64.4
2019-05-30T20:51:47.493Z,64.6
2019-05-30T20:53:08.198Z,64.6
2019-05-30T20:54:09.582Z,64.6
2019-05-30T20:55:31.062Z,64.8
2019-05-30T20:56:32.446Z,64.6
2019-05-30T20:57:53.926Z,64.4
2019-05-30T20:58:55.318Z,64.6
2019-05-30T21:00:16.785Z,64.4
2019-05-30T21:01:18.175Z,64.6
2019-05-30T21:02:40.743Z,64.4
2019-05-30T21:03:41.744Z,64.9
2019-05-30T21:05:02.473Z,64.8
2019-05-30T21:06:03.862Z,65.0
2019-05-30T21:07:25.334Z,65.0
2019-05-30T21:08:26.718Z,64.6
2019-05-30T21:09:48.190Z,64.7
2019-05-30T21:10:49.575Z,64.7
2019-05-30T21:12:11.128Z,64.7
2019-05-30T21:13:12.415Z,64.8
2019-05-30T21:14:35.346Z,64.8
2019-05-30T21:15:35.363Z,64.7
2019-05-30T21:16:56.680Z,65.1
2019-05-30T21:17:58.071Z,65.1
2019-05-30T21:19:19.567Z,65.0
2019-05-30T21:20:20.951Z,64.4
2019-05-30T21:21:42.558Z,64.4
2019-05-30T21:22:44.629Z,65.0
2019-05-30T21:24:05.224Z,65.1
2019-05-30T21:25:06.593Z,64.7
2019-05-30T21:26:28.079Z,64.5
2019-05-30T21:27:29.462Z,64.5
2019-05-30T21:28:50.935Z,64.6
2019-05-30T21:29:52.319Z,64.6
2019-05-30T21:31:13.799Z,64.4
2019-05-30T21:32:15.237Z,64.4
2019-05-30T21:33:37.511Z,64.6
2019-05-30T21:34:38.278Z,64.5
2019-05-30T21:35:59.463Z,64.5
2019-05-30T21:37:00.855Z,64.7
2019-05-30T21:38:22.319Z,64.7
2019-05-30T21:39:23.715Z,65.1
2019-05-30T21:40:46.446Z,65.1
2019-05-30T21:41:46.535Z,64.4
2019-05-30T21:43:08.020Z,64.5
2019-05-30T21:44:09.407Z,64.5
2019-05-30T21:45:30.895Z,64.3
2019-05-30T21:46:32.279Z,64.6
2019-05-30T21:47:53.768Z,64.4
2019-05-30T21:48:55.152Z,64.6
2019-05-30T21:50:16.623Z,64.6
2019-05-30T21:51:18.000Z,64.8
2019-05-30T21:52:39.504Z,64.1
2019-05-30T21:53:41.481Z,64.7
2019-05-30T21:55:03.415Z,64.6
2019-05-30T21:56:03.680Z,64.6
2019-05-30T21:57:25.151Z,64.4
2019-05-30T21:58:26.544Z,64.5
2019-05-30T21:59:48.920Z,64.4
2019-05-30T22:00:50.698Z,64.5
2019-05-30T22:02:10.816Z,64.6
2019-05-30T22:03:12.209Z,64.4
2019-05-30T22:04:33.688Z,64.5
2019-05-30T22:05:35.081Z,64.5
2019-05-30T22:06:56.552Z,64.1
2019-05-30T22:07:57.936Z,64.7
2019-05-30T22:09:19.436Z,64.3
2019-05-30T22:10:20.823Z,64.4
2019-05-30T22:11:43.507Z,64.8
2019-05-30T22:12:43.656Z,64.6
2019-05-30T22:14:05.136Z,64.6
2019-05-30T22:15:06.520Z,64.8
2019-05-30T22:16:28.003Z,64.7
2019-05-30T22:17:29.385Z,64.6
2019-05-30T22:18:52.115Z,64.6
2019-05-30T22:19:52.281Z,64.7
2019-05-30T22:21:13.640Z,64.7
2019-05-30T22:22:15.032Z,64.6
2019-05-30T22:23:36.529Z,64.3
2019-05-30T22:24:37.912Z,64.3
2019-05-30T22:25:59.386Z,64.3
2019-05-30T22:27:00.769Z,64.3
2019-05-30T22:28:22.240Z,64.4
2019-05-30T22:29:23.625Z,64.2
2019-05-30T22:30:46.273Z,64.6
2019-05-30T22:31:46.572Z,64.5
2019-05-30T22:33:07.913Z,64.7
2019-05-30T22:34:09.297Z,64.6
2019-05-30T22:35:30.769Z,64.7
2019-05-30T22:36:32.145Z,64.6
2019-05-30T22:37:53.649Z,64.2
2019-05-30T22:38:55.025Z,64.7
2019-05-30T22:40:16.497Z,64.6
2019-05-30T22:41:17.881Z,64.7
2019-05-30T22:42:39.363Z,64.7
2019-05-30T22:43:40.745Z,64.7
2019-05-30T22:45:02.235Z,64.4
2019-05-30T22:46:03.617Z,64.6
2019-05-30T22:47:25.081Z,64.2
2019-05-30T22:48:26.489Z,64.4
2019-05-30T22:49:48.648Z,64.4
2019-05-30T22:50:49.307Z,64.4
2019-05-30T22:52:10.794Z,64.5
2019-05-30T22:53:12.179Z,64.4
2019-05-30T22:54:33.649Z,64.7
2019-05-30T22:55:35.041Z,64.1
2019-05-30T22:56:56.522Z,64.6
2019-05-30T22:57:57.905Z,64.6
2019-05-30T22:59:19.401Z,64.5
2019-05-30T23:00:20.786Z,64.4
2019-05-30T23:01:42.258Z,64.5
2019-05-30T23:02:43.701Z,64.5
2019-05-30T23:04:05.114Z,64.4
2019-05-30T23:05:06.499Z,64.5
2019-05-30T23:06:27.986Z,64.4
2019-05-30T23:07:29.386Z,64.3
2019-05-30T23:08:50.842Z,64.5
2019-05-30T23:09:52.226Z,64.5
2019-05-30T23:11:13.682Z,64.6
2019-05-30T23:12:15.081Z,64.4
2019-05-30T23:13:40.437Z,64.7
2019-05-30T23:14:37.915Z,64.6
2019-05-30T23:15:59.386Z,64.5
2019-05-30T23:17:00.780Z,64.8
2019-05-30T23:18:22.252Z,64.7
2019-05-30T23:19:23.634Z,64.6
2019-05-30T23:20:45.122Z,64.6
2019-05-30T23:21:46.796Z,64.6
2019-05-30T23:23:07.938Z,64.6
2019-05-30T23:24:09.322Z,64.5
2019-05-30T23:25:30.794Z,64.5
2019-05-30T23:26:32.179Z,64.7
2019-05-30T23:27:53.682Z,64.4
2019-05-30T23:28:55.777Z,64.5
2019-05-30T23:30:16.507Z,64.4
2019-05-30T23:31:17.885Z,64.4
2019-05-30T23:32:39.362Z,64.9
2019-05-30T23:33:40.747Z,64.5
2019-05-30T23:35:02.234Z,64.5
2019-05-30T23:36:03.620Z,64.5
2019-05-30T23:37:25.090Z,64.7
2019-05-30T23:38:26.483Z,64.7
2019-05-30T23:39:48.665Z,64.1
2019-05-30T23:40:49.307Z,64.4
2019-05-30T23:42:10.795Z,64.4
2019-05-30T23:43:12.188Z,64.5
2019-05-30T23:44:33.701Z,64.1
2019-05-30T23:45:35.044Z,64.6
2019-05-30T23:46:57.750Z,64.6
2019-05-30T23:47:57.867Z,64.6
2019-05-30T23:49:19.363Z,64.7
2019-05-30T23:50:20.747Z,64.6
2019-05-30T23:51:42.220Z,64.8
2019-05-30T23:52:43.603Z,64.6
2019-05-30T23:54:05.075Z,64.5
2019-05-30T23:55:06.459Z,64.5
2019-05-30T23:56:27.955Z,64.5
2019-05-30T23:57:29.340Z,64.7
2019-05-30T23:58:50.820Z,64.8
2019-05-30T23:59:52.727Z,64.7
